createdAt,value
2023-01-31T00:00:47.844Z,20.55
2023-01-31T00:03:55.910Z,20.53
2023-01-31T00:06:59.060Z,20.55
2023-01-31T00:10:02.146Z,20.50
2023-01-31T00:13:05.193Z,20.53
2023-01-31T00:16:08.882Z,20.55
2023-01-31T00:19:13.260Z,20.55
2023-01-31T00:22:16.310Z,20.52
2023-01-31T00:25:19.772Z,20.50
2023-01-31T00:28:22.927Z,20.45
2023-01-31T00:31:28.824Z,20.55
2023-01-31T00:34:33.373Z,20.57
2023-01-31T00:37:36.865Z,20.54
2023-01-31T00:40:39.989Z,20.54
2023-01-31T00:43:45.685Z,20.56
2023-01-31T00:46:48.765Z,20.54
2023-01-31T00:49:53.296Z,20.52
2023-01-31T00:52:56.276Z,20.54
2023-01-31T00:56:05.075Z,20.54
2023-01-31T00:59:08.807Z,20.54
2023-01-31T01:02:11.846Z,20.53
2023-01-31T01:05:16.346Z,20.53
2023-01-31T01:08:19.499Z,20.53
2023-01-31T01:11:24.668Z,20.51
2023-01-31T01:14:30.320Z,20.53
2023-01-31T01:17:35.291Z,20.54
2023-01-31T01:20:39.770Z,20.51
2023-01-31T01:23:43.303Z,20.52
2023-01-31T01:26:47.128Z,20.53
2023-01-31T01:29:50.164Z,20.51
2023-01-31T01:32:56.129Z,20.50
2023-01-31T01:36:02.855Z,20.52
2023-01-31T01:39:09.902Z,20.51
2023-01-31T01:42:16.406Z,20.40
2023-01-31T01:45:22.531Z,20.52
2023-01-31T01:48:29.198Z,20.53
2023-01-31T01:51:36.130Z,20.53
2023-01-31T01:54:47.129Z,20.52
2023-01-31T01:57:53.927Z,20.51
2023-01-31T02:00:57.209Z,20.50
2023-01-31T02:04:00.301Z,20.46
2023-01-31T02:07:05.378Z,20.43
2023-01-31T02:10:13.744Z,20.52
2023-01-31T02:13:17.565Z,20.50
2023-01-31T02:16:21.069Z,20.38
2023-01-31T02:19:36.319Z,20.54
2023-01-31T02:22:52.270Z,20.53
2023-01-31T02:26:32.288Z,20.53
2023-01-31T02:30:09.359Z,20.42
2023-01-31T02:33:22.873Z,20.53
2023-01-31T02:36:36.871Z,20.49
2023-01-31T02:39:44.992Z,20.54
2023-01-31T02:42:56.309Z,20.55
2023-01-31T02:46:06.752Z,20.54
2023-01-31T02:49:34.722Z,20.46
2023-01-31T02:52:47.094Z,20.55
2023-01-31T02:56:20.209Z,20.54
2023-01-31T02:59:28.458Z,20.51
2023-01-31T03:02:31.641Z,20.50
2023-01-31T03:05:36.596Z,20.52
2023-01-31T03:08:41.014Z,20.56
2023-01-31T03:11:54.132Z,20.54
2023-01-31T03:15:08.638Z,20.55
2023-01-31T03:18:15.866Z,20.55
2023-01-31T03:21:27.912Z,20.46
2023-01-31T03:24:31.650Z,20.53
2023-01-31T03:27:38.371Z,20.54
2023-01-31T03:30:46.962Z,20.55
2023-01-31T03:33:53.431Z,20.55
2023-01-31T03:37:05.881Z,20.45
2023-01-31T03:40:15.563Z,20.47
2023-01-31T03:43:29.361Z,20.47
2023-01-31T03:46:36.508Z,20.55
2023-01-31T03:49:42.777Z,20.52
2023-01-31T03:52:53.322Z,20.55
2023-01-31T03:56:00.482Z,20.55
2023-01-31T03:59:11.453Z,20.54
2023-01-31T04:02:18.158Z,20.55
2023-01-31T04:05:32.925Z,20.43
2023-01-31T04:08:37.779Z,20.55
2023-01-31T04:11:42.526Z,20.55
2023-01-31T04:14:45.531Z,20.54
2023-01-31T04:17:48.607Z,20.57
2023-01-31T04:20:51.674Z,20.58
2023-01-31T04:23:56.062Z,20.04
2023-01-31T04:26:59.204Z,20.02
2023-01-31T04:30:02.232Z,20.15
2023-01-31T04:33:05.289Z,20.24
2023-01-31T04:36:09.394Z,20.40
2023-01-31T04:39:18.901Z,20.48
2023-01-31T04:42:21.967Z,20.54
2023-01-31T04:45:24.941Z,20.51
2023-01-31T04:48:29.115Z,20.40
2023-01-31T04:51:33.093Z,20.28
2023-01-31T04:54:37.938Z,20.20
2023-01-31T04:57:40.982Z,20.47
2023-01-31T05:00:45.155Z,20.81
2023-01-31T05:03:48.379Z,21.04
2023-01-31T05:06:53.982Z,20.85
2023-01-31T05:09:58.440Z,20.96
2023-01-31T05:13:01.502Z,21.07
2023-01-31T05:16:05.740Z,21.09
2023-01-31T05:19:09.145Z,21.13
2023-01-31T05:22:12.145Z,21.22
2023-01-31T05:25:16.737Z,21.30
2023-01-31T05:28:19.883Z,21.34
2023-01-31T05:31:23.176Z,21.38
2023-01-31T05:34:28.820Z,21.41
2023-01-31T05:37:32.246Z,21.41
2023-01-31T05:40:40.469Z,21.43
2023-01-31T05:43:43.440Z,21.43
2023-01-31T05:46:47.110Z,21.41
2023-01-31T05:49:50.088Z,21.42
2023-01-31T05:52:54.600Z,21.30
2023-01-31T05:55:59.083Z,21.37
2023-01-31T05:59:03.507Z,21.36
2023-01-31T06:02:06.623Z,21.34
2023-01-31T06:05:10.645Z,21.23
2023-01-31T06:08:14.041Z,21.29
2023-01-31T06:11:18.659Z,21.24
2023-01-31T06:14:21.682Z,21.19
2023-01-31T06:17:24.961Z,21.14
2023-01-31T06:20:29.141Z,20.99
2023-01-31T06:23:32.182Z,21.06
2023-01-31T06:26:36.627Z,21.02
2023-01-31T06:29:45.497Z,20.96
2023-01-31T06:32:48.588Z,20.90
2023-01-31T06:35:51.584Z,20.84
2023-01-31T06:38:54.633Z,20.80
2023-01-31T06:41:59.054Z,20.76
2023-01-31T06:45:02.079Z,20.68
2023-01-31T06:48:05.404Z,20.71
2023-01-31T06:51:08.442Z,20.71
2023-01-31T06:54:11.458Z,20.69
2023-01-31T06:57:15.819Z,20.68
2023-01-31T07:00:19.767Z,20.70
2023-01-31T07:03:25.648Z,20.69
2023-01-31T07:06:28.785Z,20.73
2023-01-31T07:09:32.232Z,20.76
2023-01-31T07:12:36.819Z,20.77
2023-01-31T07:15:39.920Z,20.78
2023-01-31T07:18:42.934Z,20.75
2023-01-31T07:21:47.321Z,20.82
2023-01-31T07:24:51.155Z,20.86
2023-01-31T07:27:56.071Z,20.87
2023-01-31T07:31:05.950Z,20.87
2023-01-31T07:34:08.949Z,20.65
2023-01-31T07:37:12.025Z,20.87
2023-01-31T07:40:16.945Z,20.88
2023-01-31T07:43:24.379Z,20.86
2023-01-31T07:46:32.245Z,20.86
2023-01-31T07:49:35.631Z,20.87
2023-01-31T07:52:38.581Z,20.86
2023-01-31T07:55:43.166Z,20.86
2023-01-31T07:58:49.111Z,20.82
2023-01-31T08:02:09.391Z,20.84
2023-01-31T08:05:12.586Z,20.84
2023-01-31T08:08:15.678Z,20.82
2023-01-31T08:11:18.638Z,20.82
2023-01-31T08:14:25.679Z,20.80
2023-01-31T08:17:29.493Z,20.79
2023-01-31T08:20:32.792Z,20.80
2023-01-31T08:23:38.248Z,20.78
2023-01-31T08:26:43.586Z,20.75
2023-01-31T08:29:48.120Z,20.81
2023-01-31T08:32:51.081Z,20.79
2023-01-31T08:35:54.133Z,20.83
2023-01-31T08:38:57.547Z,20.84
2023-01-31T08:42:01.888Z,20.84
2023-01-31T08:45:08.041Z,20.84
2023-01-31T08:48:11.043Z,20.85
2023-01-31T08:51:15.294Z,20.83
2023-01-31T08:57:28.842Z,20.84
2023-01-31T09:00:34.176Z,20.84
2023-01-31T09:03:39.579Z,20.88
2023-01-31T09:06:42.598Z,20.97
2023-01-31T09:09:47.090Z,20.89
2023-01-31T09:12:50.113Z,21.09
2023-01-31T09:16:00.620Z,21.06
2023-01-31T09:19:03.658Z,21.05
2023-01-31T09:22:06.671Z,21.07
2023-01-31T09:25:11.031Z,21.00
2023-01-31T09:28:14.064Z,21.03
2023-01-31T09:31:20.929Z,20.98
2023-01-31T09:34:24.258Z,20.99
2023-01-31T09:37:27.528Z,21.05
2023-01-31T09:40:33.718Z,21.08
2023-01-31T09:43:44.639Z,21.00
2023-01-31T09:46:58.077Z,21.10
2023-01-31T09:50:05.622Z,21.10
2023-01-31T09:53:13.914Z,21.14
2023-01-31T09:56:29.863Z,21.11
2023-01-31T09:59:43.721Z,21.12
2023-01-31T10:03:05.701Z,20.91
2023-01-31T10:06:20.080Z,21.15
2023-01-31T10:09:30.764Z,21.18
2023-01-31T10:12:38.415Z,21.22
2023-01-31T10:15:46.901Z,21.24
2023-01-31T10:18:58.676Z,21.26
2023-01-31T10:22:09.300Z,21.23
2023-01-31T10:25:25.044Z,21.35
2023-01-31T10:28:36.574Z,21.40
2023-01-31T10:31:44.708Z,21.44
2023-01-31T10:34:55.386Z,21.45
2023-01-31T10:38:03.680Z,21.42
2023-01-31T10:41:14.842Z,21.35
2023-01-31T10:44:24.218Z,21.42
2023-01-31T10:47:35.436Z,21.41
2023-01-31T10:50:50.509Z,21.41
2023-01-31T10:54:14.665Z,21.41
2023-01-31T10:57:18.366Z,21.43
2023-01-31T11:00:26.997Z,21.30
2023-01-31T11:03:34.562Z,21.34
2023-01-31T11:06:38.973Z,21.36
2023-01-31T11:09:46.199Z,21.40
2023-01-31T11:12:55.294Z,21.42
2023-01-31T11:19:28.345Z,21.39
2023-01-31T11:22:34.208Z,21.35
2023-01-31T11:25:38.452Z,21.34
2023-01-31T11:28:42.300Z,21.32
2023-01-31T11:31:49.774Z,21.20
2023-01-31T11:35:00.630Z,21.17
2023-01-31T11:38:22.329Z,21.12
2023-01-31T11:41:36.550Z,21.10
2023-01-31T11:44:55.508Z,21.08
2023-01-31T11:48:00.237Z,21.06
2023-01-31T11:51:08.165Z,21.04
2023-01-31T11:54:19.159Z,21.02
2023-01-31T11:57:27.223Z,21.01
2023-01-31T12:00:33.577Z,21.02
2023-01-31T12:03:43.823Z,21.01
2023-01-31T12:07:01.918Z,20.74
2023-01-31T12:10:27.760Z,20.97
2023-01-31T12:13:30.774Z,20.97
2023-01-31T12:16:35.077Z,20.95
2023-01-31T12:19:52.928Z,20.95
2023-01-31T12:26:20.996Z,20.93
2023-01-31T12:29:58.861Z,20.92
2023-01-31T12:33:16.318Z,20.92
2023-01-31T12:36:31.481Z,20.91
2023-01-31T12:39:52.442Z,20.91
2023-01-31T12:43:01.658Z,20.88
2023-01-31T12:46:15.456Z,20.89
2023-01-31T12:49:49.434Z,21.02
2023-01-31T12:53:13.554Z,21.05
2023-01-31T12:56:31.097Z,21.08
2023-01-31T12:59:47.792Z,21.04
2023-01-31T13:03:04.746Z,21.09
2023-01-31T13:06:15.303Z,21.08
2023-01-31T13:09:22.272Z,21.13
2023-01-31T13:12:29.267Z,21.13
2023-01-31T13:15:45.687Z,21.15
2023-01-31T13:18:53.560Z,21.10
2023-01-31T13:21:59.565Z,21.01
2023-01-31T13:25:19.616Z,21.06
2023-01-31T13:28:26.756Z,21.08
2023-01-31T13:31:37.059Z,21.11
2023-01-31T13:34:51.203Z,21.04
2023-01-31T13:38:00.364Z,20.98
2023-01-31T13:41:05.688Z,21.00
2023-01-31T13:44:14.243Z,20.93
2023-01-31T13:47:25.355Z,20.92
2023-01-31T13:50:36.950Z,20.88
2023-01-31T13:53:49.509Z,20.87
2023-01-31T13:56:55.637Z,20.73
2023-01-31T14:00:10.785Z,20.85
2023-01-31T14:03:16.883Z,20.82
2023-01-31T14:06:23.011Z,20.81
2023-01-31T14:09:27.537Z,20.82
2023-01-31T14:12:35.925Z,20.82
2023-01-31T14:15:50.427Z,20.80
2023-01-31T14:18:57.329Z,20.80
2023-01-31T14:22:14.387Z,20.78
2023-01-31T14:25:17.666Z,20.81
2023-01-31T14:28:20.905Z,20.81
2023-01-31T14:31:25.581Z,20.79
2023-01-31T14:34:34.608Z,20.80
2023-01-31T14:37:47.803Z,20.76
2023-01-31T14:41:02.873Z,20.82
2023-01-31T14:44:20.934Z,20.82
2023-01-31T14:47:36.071Z,20.77
2023-01-31T14:51:01.407Z,20.82
2023-01-31T14:54:32.193Z,20.78
2023-01-31T14:57:43.484Z,20.81
2023-01-31T15:00:51.904Z,20.77
2023-01-31T15:04:01.379Z,20.81
2023-01-31T15:07:06.913Z,20.80
2023-01-31T15:10:49.385Z,20.81
2023-01-31T15:13:53.892Z,20.82
2023-01-31T15:17:02.791Z,20.81
2023-01-31T15:20:16.467Z,20.81
2023-01-31T15:23:24.978Z,20.79
2023-01-31T15:26:33.400Z,20.76
2023-01-31T15:29:50.198Z,20.79
2023-01-31T15:32:57.863Z,20.79
2023-01-31T15:36:05.857Z,20.75
2023-01-31T15:39:26.019Z,20.75
2023-01-31T15:42:31.181Z,20.77
2023-01-31T15:45:34.211Z,20.77
2023-01-31T15:48:37.359Z,20.77
2023-01-31T15:51:44.115Z,20.77
2023-01-31T15:54:56.627Z,20.68
2023-01-31T15:58:03.079Z,20.75
2023-01-31T16:01:06.767Z,20.76
2023-01-31T16:04:13.753Z,20.76
2023-01-31T16:07:19.096Z,20.78
2023-01-31T16:10:26.623Z,20.77
2023-01-31T16:13:32.812Z,20.75
2023-01-31T16:16:38.677Z,20.76
2023-01-31T16:19:44.585Z,20.76
2023-01-31T16:22:57.428Z,20.75
2023-01-31T16:26:09.597Z,20.78
2023-01-31T16:29:17.407Z,20.82
2023-01-31T16:32:24.008Z,20.84
2023-01-31T16:35:29.161Z,20.85
2023-01-31T16:38:32.450Z,20.58
2023-01-31T16:41:45.535Z,20.04
2023-01-31T16:44:49.572Z,19.57
2023-01-31T16:47:55.480Z,19.36
2023-01-31T16:51:00.355Z,19.09
2023-01-31T16:54:21.329Z,18.89
2023-01-31T16:57:38.543Z,19.65
2023-01-31T17:00:42.072Z,20.24
2023-01-31T17:03:45.468Z,20.60
2023-01-31T17:06:52.434Z,20.79
2023-01-31T17:09:57.889Z,20.99
2023-01-31T17:13:06.547Z,21.07
2023-01-31T17:16:24.306Z,21.16
2023-01-31T17:19:27.532Z,21.18
2023-01-31T17:22:30.612Z,21.27
2023-01-31T17:25:36.657Z,21.34
2023-01-31T17:28:42.747Z,21.33
2023-01-31T17:31:49.709Z,21.37
2023-01-31T17:34:52.993Z,21.39
2023-01-31T17:37:56.463Z,21.37
2023-01-31T17:40:59.577Z,21.13
2023-01-31T17:44:11.316Z,21.37
2023-01-31T17:47:14.938Z,21.42
2023-01-31T17:50:22.532Z,21.55
2023-01-31T17:53:25.732Z,21.65
2023-01-31T17:56:28.894Z,21.60
2023-01-31T17:59:33.282Z,21.68
2023-01-31T18:02:36.379Z,21.69
2023-01-31T18:05:48.052Z,21.60
2023-01-31T18:08:52.428Z,21.61
2023-01-31T18:11:56.328Z,21.40
2023-01-31T18:15:04.409Z,21.39
2023-01-31T18:18:08.981Z,21.40
2023-01-31T18:21:14.010Z,21.39
2023-01-31T18:24:17.111Z,21.37
2023-01-31T18:27:22.888Z,21.33
2023-01-31T18:30:27.451Z,21.30
2023-01-31T18:33:30.636Z,21.29
2023-01-31T18:36:33.703Z,21.25
2023-01-31T18:39:36.784Z,21.25
2023-01-31T18:42:43.780Z,21.20
2023-01-31T18:45:48.654Z,21.23
2023-01-31T18:48:51.868Z,21.15
2023-01-31T18:51:54.919Z,21.08
2023-01-31T18:54:57.952Z,21.06
2023-01-31T18:58:01.167Z,21.06
2023-01-31T19:01:10.648Z,21.09
2023-01-31T19:04:13.915Z,21.10
2023-01-31T19:07:16.948Z,21.12
2023-01-31T19:10:20.067Z,21.13
2023-01-31T19:13:27.693Z,21.04
2023-01-31T19:16:37.229Z,21.59
2023-01-31T19:19:40.408Z,22.46
2023-01-31T19:22:43.499Z,23.28
2023-01-31T19:25:46.525Z,23.80
2023-01-31T19:28:50.521Z,24.03
2023-01-31T19:31:56.025Z,24.14
2023-01-31T19:35:01.718Z,24.36
2023-01-31T19:38:04.771Z,24.77
2023-01-31T19:41:10.774Z,25.01
2023-01-31T19:44:13.867Z,25.19
2023-01-31T19:47:18.409Z,25.16
2023-01-31T19:50:23.663Z,25.40
2023-01-31T19:53:26.972Z,25.42
2023-01-31T19:56:30.437Z,25.36
2023-01-31T19:59:34.339Z,25.33
2023-01-31T20:02:44.997Z,25.27
2023-01-31T20:05:48.105Z,25.26
2023-01-31T20:08:54.054Z,25.25
2023-01-31T20:12:00.502Z,25.26
2023-01-31T20:15:09.794Z,25.29
2023-01-31T20:18:14.297Z,25.19
2023-01-31T20:21:23.790Z,25.20
2023-01-31T20:24:28.047Z,24.15
2023-01-31T20:27:36.719Z,24.14
2023-01-31T20:30:40.917Z,24.71
2023-01-31T20:33:46.841Z,25.16
2023-01-31T20:36:52.266Z,25.46
2023-01-31T20:39:57.463Z,25.50
2023-01-31T20:43:00.696Z,25.58
2023-01-31T20:46:04.975Z,25.61
2023-01-31T20:49:09.458Z,25.50
2023-01-31T20:52:12.501Z,25.57
2023-01-31T20:55:16.451Z,25.53
2023-01-31T20:58:19.556Z,25.07
2023-01-31T21:01:22.730Z,23.94
2023-01-31T21:04:27.192Z,23.31
2023-01-31T21:07:32.551Z,22.88
2023-01-31T21:10:36.688Z,22.77
2023-01-31T21:13:41.291Z,22.64
2023-01-31T21:16:44.379Z,22.50
2023-01-31T21:19:51.818Z,22.40
2023-01-31T21:22:54.877Z,22.20
2023-01-31T21:26:01.925Z,22.24
2023-01-31T21:29:05.446Z,22.18
2023-01-31T21:32:08.482Z,22.11
2023-01-31T21:35:13.741Z,22.04
2023-01-31T21:38:16.810Z,21.98
2023-01-31T21:41:37.792Z,21.94
2023-01-31T21:44:41.014Z,21.87
2023-01-31T21:47:57.801Z,21.81
2023-01-31T21:51:05.075Z,21.72
2023-01-31T21:54:10.916Z,21.77
2023-01-31T21:57:14.005Z,21.72
2023-01-31T22:00:17.685Z,21.70
2023-01-31T22:03:20.697Z,21.55
2023-01-31T22:06:34.395Z,21.66
2023-01-31T22:09:37.359Z,21.64
2023-01-31T22:12:40.339Z,21.62
2023-01-31T22:15:43.295Z,21.59
2023-01-31T22:18:46.647Z,21.55
2023-01-31T22:21:51.069Z,21.54
2023-01-31T22:24:56.113Z,21.52
2023-01-31T22:28:06.608Z,21.47
2023-01-31T22:31:13.445Z,21.46
2023-01-31T22:34:17.415Z,21.44
2023-01-31T22:37:21.836Z,21.43
2023-01-31T22:40:27.232Z,21.41
2023-01-31T22:43:31.177Z,21.35
2023-01-31T22:46:36.913Z,21.35
2023-01-31T22:49:39.996Z,21.35
2023-01-31T22:52:48.276Z,21.33
2023-01-31T22:55:51.344Z,21.31
2023-01-31T22:58:58.168Z,21.29
2023-01-31T23:02:01.235Z,21.27
2023-01-31T23:05:04.318Z,21.28
2023-01-31T23:08:11.964Z,21.24
2023-01-31T23:11:17.229Z,21.23
2023-01-31T23:14:20.459Z,21.20
2023-01-31T23:17:38.945Z,21.17
2023-01-31T23:20:42.335Z,21.19
2023-01-31T23:23:47.422Z,21.17
2023-01-31T23:26:55.395Z,21.16
2023-01-31T23:29:58.332Z,21.15
2023-01-31T23:33:01.313Z,21.14
2023-01-31T23:36:04.508Z,21.12
2023-01-31T23:39:08.822Z,21.12
2023-01-31T23:42:11.900Z,21.11
2023-01-31T23:45:16.649Z,21.10
2023-01-31T23:48:22.991Z,21.09
2023-01-31T23:51:27.877Z,21.08
2023-01-31T23:54:32.291Z,21.09
2023-01-31T23:57:35.374Z,20.99
